ENML/MOL METAR and TAF weather

Enter ICAO airport designator
Station Type Date Time Source
ENML METAR 2022/01/18 07:50 UTC NOAA

ENML 180750Z 26017KT 9999 -SHRA FEW015 BKN045 08/02 Q1017


Station Type Date Time Source
ENML Decoded METAR 2022/01/18 07:50 UTC NOAA

Molde / Aro, Norway (ENML) 62-45N 007-16E 3M
Jan 18, 2022 - 02:50 AM EST / 2022.01.18 0750 UTC
Wind: from the W (260 degrees) at 20 MPH (17 KT):0
Visibility: greater than 7 mile(s):0
Sky conditions: mostly cloudy
Weather: light rain showers
Temperature: 46 F (8 C)
Dew Point: 35 F (2 C)
Relative Humidity: 65%
Pressure (altimeter): 30.03 in. Hg (1017 hPa)
ob: ENML 180750Z 26017KT 9999 -SHRA FEW015 BKN045 08/02 Q1017
cycle: 8

Station Type Date Time Source
ENML TAF UTC NOAA

Error!

Example: see airport list